sensor_id;sensor_type;location;lat;lon;timestamp;pressure;altitude;pressure_sealevel;temperature;humidity
21096;BME280;10706;49.036;12.112;2023-06-22T00:02:18;97931.88;;;16.92;100.00
21096;BME280;10706;49.036;12.112;2023-06-22T00:04:44;97919.44;;;16.96;100.00
21096;BME280;10706;49.036;12.112;2023-06-22T00:07:10;97912.16;;;16.96;100.00
21096;BME280;10706;49.036;12.112;2023-06-22T00:09:36;97901.38;;;16.96;100.00
21096;BME280;10706;49.036;12.112;2023-06-22T00:12:02;97902.72;;;16.94;100.00
21096;BME280;10706;49.036;12.112;2023-06-22T00:14:28;97896.28;;;16.89;100.00
21096;BME280;10706;49.036;12.112;2023-06-22T00:16:54;97893.84;;;16.88;100.00
21096;BME280;10706;49.036;12.112;2023-06-22T00:19:24;97888.44;;;16.88;100.00
21096;BME280;10706;49.036;12.112;2023-06-22T00:21:51;97883.59;;;16.85;100.00
21096;BME280;10706;49.036;12.112;2023-06-22T00:24:20;97888.69;;;16.81;100.00
21096;BME280;10706;49.036;12.112;2023-06-22T00:26:48;97892.22;;;16.82;100.00
21096;BME280;10706;49.036;12.112;2023-06-22T00:29:14;97886.25;;;16.80;100.00
21096;BME280;10706;49.036;12.112;2023-06-22T00:31:39;97866.03;;;16.77;100.00
21096;BME280;10706;49.036;12.112;2023-06-22T00:34:05;97860.38;;;16.79;100.00
21096;BME280;10706;49.036;12.112;2023-06-22T00:36:34;97862.28;;;16.78;100.00
21096;BME280;10706;49.036;12.112;2023-06-22T00:39:00;97854.97;;;16.79;100.00
21096;BME280;10706;49.036;12.112;2023-06-22T00:41:26;97849.06;;;16.77;100.00
21096;BME280;10706;49.036;12.112;2023-06-22T00:43:54;97849.06;;;16.82;100.00
21096;BME280;10706;49.036;12.112;2023-06-22T00:46:21;97851.22;;;16.85;100.00
21096;BME280;10706;49.036;12.112;2023-06-22T00:48:48;97842.31;;;16.79;100.00
21096;BME280;10706;49.036;12.112;2023-06-22T00:51:14;97837.19;;;16.78;100.00
21096;BME280;10706;49.036;12.112;2023-06-22T00:53:40;97844.22;;;16.84;100.00
21096;BME280;10706;49.036;12.112;2023-06-22T00:56:07;97846.63;;;16.80;100.00
21096;BME280;10706;49.036;12.112;2023-06-22T00:58:36;97850.69;;;16.83;100.00
21096;BME280;10706;49.036;12.112;2023-06-22T01:01:01;97839.88;;;16.78;100.00
21096;BME280;10706;49.036;12.112;2023-06-22T01:03:28;97839.38;;;16.70;100.00
21096;BME280;10706;49.036;12.112;2023-06-22T01:06:05;97847.69;;;16.79;100.00
21096;BME280;10706;49.036;12.112;2023-06-22T01:08:51;97842.59;;;16.73;100.00
21096;BME280;10706;49.036;12.112;2023-06-22T01:11:26;97843.66;;;16.66;100.00
21096;BME280;10706;49.036;12.112;2023-06-22T01:16:36;97848.56;;;16.59;100.00
21096;BME280;10706;49.036;12.112;2023-06-22T01:19:41;97854.44;;;16.66;100.00
21096;BME280;10706;49.036;12.112;2023-06-22T01:22:10;97857.69;;;16.53;100.00
21096;BME280;10706;49.036;12.112;2023-06-22T01:25:13;97853.41;;;16.52;100.00
21096;BME280;10706;49.036;12.112;2023-06-22T01:27:59;97842.88;;;16.45;100.00
21096;BME280;10706;49.036;12.112;2023-06-22T01:30:28;97840.72;;;16.47;100.00
21096;BME280;10706;49.036;12.112;2023-06-22T01:33:00;97848.81;;;16.52;100.00
21096;BME280;10706;49.036;12.112;2023-06-22T01:35:27;97849.06;;;16.46;100.00
21096;BME280;10706;49.036;12.112;2023-06-22T01:37:54;97862.56;;;16.41;100.00
21096;BME280;10706;49.036;12.112;2023-06-22T01:40:21;97849.63;;;16.38;100.00
21096;BME280;10706;49.036;12.112;2023-06-22T01:42:48;97852.31;;;16.38;100.00
21096;BME280;10706;49.036;12.112;2023-06-22T01:45:15;97857.72;;;16.38;100.00
21096;BME280;10706;49.036;12.112;2023-06-22T01:47:42;97857.97;;;16.36;100.00
21096;BME280;10706;49.036;12.112;2023-06-22T01:50:09;97858.53;;;16.33;100.00
21096;BME280;10706;49.036;12.112;2023-06-22T01:52:35;97857.72;;;16.32;100.00
21096;BME280;10706;49.036;12.112;2023-06-22T01:55:01;97868.75;;;16.31;100.00
21096;BME280;10706;49.036;12.112;2023-06-22T01:57:27;97869.56;;;16.31;100.00
21096;BME280;10706;49.036;12.112;2023-06-22T02:00:04;97872.53;;;16.30;100.00
21096;BME280;10706;49.036;12.112;2023-06-22T02:03:02;97877.13;;;16.29;100.00
21096;BME280;10706;49.036;12.112;2023-06-22T02:05:50;97889.78;;;16.29;100.00
21096;BME280;10706;49.036;12.112;2023-06-22T02:08:40;97896.25;;;16.28;100.00
21096;BME280;10706;49.036;12.112;2023-06-22T02:11:09;97887.91;;;16.24;100.00
21096;BME280;10706;49.036;12.112;2023-06-22T02:13:37;97880.06;;;16.23;100.00
21096;BME280;10706;49.036;12.112;2023-06-22T02:16:04;97877.09;;;16.19;100.00
21096;BME280;10706;49.036;12.112;2023-06-22T02:22:03;97881.69;;;16.19;100.00
21096;BME280;10706;49.036;12.112;2023-06-22T02:24:38;97881.69;;;16.19;100.00
21096;BME280;10706;49.036;12.112;2023-06-22T02:27:04;97877.09;;;16.14;100.00
21096;BME280;10706;49.036;12.112;2023-06-22T02:29:33;97876.56;;;16.12;100.00
21096;BME280;10706;49.036;12.112;2023-06-22T02:31:59;97872.78;;;16.13;100.00
21096;BME280;10706;49.036;12.112;2023-06-22T02:34:25;97877.66;;;16.11;100.00
21096;BME280;10706;49.036;12.112;2023-06-22T02:36:51;97866.34;;;16.09;100.00
21096;BME280;10706;49.036;12.112;2023-06-22T02:39:24;97859.31;;;16.08;100.00
21096;BME280;10706;49.036;12.112;2023-06-22T02:41:53;97856.09;;;16.06;100.00
21096;BME280;10706;49.036;12.112;2023-06-22T02:44:20;97857.44;;;16.03;100.00
21096;BME280;10706;49.036;12.112;2023-06-22T02:46:47;97851.22;;;16.03;100.00
21096;BME280;10706;49.036;12.112;2023-06-22T02:49:13;97854.47;;;16.05;100.00
21096;BME280;10706;49.036;12.112;2023-06-22T02:51:46;97845.03;;;16.02;100.00
21096;BME280;10706;49.036;12.112;2023-06-22T02:54:12;97846.09;;;16.06;100.00
21096;BME280;10706;49.036;12.112;2023-06-22T02:56:38;97855.28;;;16.05;100.00
21096;BME280;10706;49.036;12.112;2023-06-22T02:59:06;97843.13;;;16.03;100.00
21096;BME280;10706;49.036;12.112;2023-06-22T03:01:32;97852.84;;;15.99;100.00
21096;BME280;10706;49.036;12.112;2023-06-22T03:04:08;97856.09;;;15.96;100.00
21096;BME280;10706;49.036;12.112;2023-06-22T03:06:35;97849.59;;;15.91;100.00
21096;BME280;10706;49.036;12.112;2023-06-22T03:09:03;97851.75;;;15.89;100.00
21096;BME280;10706;49.036;12.112;2023-06-22T03:11:33;97848.00;;;15.90;100.00
21096;BME280;10706;49.036;12.112;2023-06-22T03:14:01;97846.34;;;15.89;100.00
21096;BME280;10706;49.036;12.112;2023-06-22T03:16:27;97851.19;;;15.87;100.00
21096;BME280;10706;49.036;12.112;2023-06-22T03:18:53;97849.03;;;15.89;100.00
21096;BME280;10706;49.036;12.112;2023-06-22T03:21:21;97841.78;;;15.90;100.00
21096;BME280;10706;49.036;12.112;2023-06-22T03:23:47;97839.91;;;15.96;100.00
21096;BME280;10706;49.036;12.112;2023-06-22T03:26:13;97842.06;;;15.93;100.00
21096;BME280;10706;49.036;12.112;2023-06-22T03:28:39;97829.69;;;15.92;100.00
21096;BME280;10706;49.036;12.112;2023-06-22T03:31:04;97842.31;;;15.97;100.00
21096;BME280;10706;49.036;12.112;2023-06-22T03:33:32;97840.72;;;15.96;100.00
21096;BME280;10706;49.036;12.112;2023-06-22T03:35:57;97842.88;;;15.94;100.00
21096;BME280;10706;49.036;12.112;2023-06-22T03:38:23;97845.56;;;15.94;100.00
21096;BME280;10706;49.036;12.112;2023-06-22T03:40:49;97844.78;;;15.93;100.00
21096;BME280;10706;49.036;12.112;2023-06-22T03:43:14;97850.97;;;15.94;100.00
21096;BME280;10706;49.036;12.112;2023-06-22T03:45:40;97844.22;;;15.97;100.00
21096;BME280;10706;49.036;12.112;2023-06-22T03:48:06;97852.84;;;15.99;100.00
21096;BME280;10706;49.036;12.112;2023-06-22T03:50:32;97844.50;;;16.00;100.00
21096;BME280;10706;49.036;12.112;2023-06-22T03:52:57;97846.91;;;16.12;100.00
21096;BME280;10706;49.036;12.112;2023-06-22T03:55:23;97848.03;;;16.31;100.00
21096;BME280;10706;49.036;12.112;2023-06-22T03:57:49;97860.69;;;16.46;100.00
21096;BME280;10706;49.036;12.112;2023-06-22T04:00:15;97861.22;;;16.38;100.00
21096;BME280;10706;49.036;12.112;2023-06-22T04:02:41;97869.28;;;16.38;100.00
21096;BME280;10706;49.036;12.112;2023-06-22T04:05:09;97861.75;;;16.40;100.00
21096;BME280;10706;49.036;12.112;2023-06-22T04:07:35;97867.69;;;16.42;100.00
21096;BME280;10706;49.036;12.112;2023-06-22T04:10:04;97859.88;;;16.41;100.00
21096;BME280;10706;49.036;12.112;2023-06-22T04:12:29;97867.16;;;16.50;100.00
21096;BME280;10706;49.036;12.112;2023-06-22T04:14:55;97870.91;;;16.60;100.00
21096;BME280;10706;49.036;12.112;2023-06-22T04:17:21;97868.50;;;16.58;100.00
21096;BME280;10706;49.036;12.112;2023-06-22T04:19:47;97860.41;;;16.53;100.00
21096;BME280;10706;49.036;12.112;2023-06-22T04:22:12;97863.38;;;16.62;100.00
21096;BME280;10706;49.036;12.112;2023-06-22T04:24:38;97868.50;;;16.63;100.00
21096;BME280;10706;49.036;12.112;2023-06-22T04:27:05;97878.97;;;16.70;100.00
21096;BME280;10706;49.036;12.112;2023-06-22T04:29:31;97883.31;;;16.71;100.00
21096;BME280;10706;49.036;12.112;2023-06-22T04:31:57;97888.41;;;16.78;100.00
21096;BME280;10706;49.036;12.112;2023-06-22T04:34:29;97882.22;;;17.03;100.00
21096;BME280;10706;49.036;12.112;2023-06-22T04:36:55;97879.25;;;17.04;100.00
21096;BME280;10706;49.036;12.112;2023-06-22T04:39:21;97880.06;;;17.05;100.00
21096;BME280;10706;49.036;12.112;2023-06-22T04:41:47;97876.50;;;17.15;100.00
21096;BME280;10706;49.036;12.112;2023-06-22T04:44:16;97870.59;;;17.13;100.00
21096;BME280;10706;49.036;12.112;2023-06-22T04:46:54;97867.34;;;17.10;100.00
21096;BME280;10706;49.036;12.112;2023-06-22T04:49:23;97857.94;;;16.93;100.00
21096;BME280;10706;49.036;12.112;2023-06-22T04:52:02;97856.34;;;16.86;100.00
21096;BME280;10706;49.036;12.112;2023-06-22T04:54:29;97856.06;;;16.93;100.00
21096;BME280;10706;49.036;12.112;2023-06-22T04:56:55;97860.09;;;17.01;100.00
21096;BME280;10706;49.036;12.112;2023-06-22T04:59:24;97860.31;;;17.09;100.00
21096;BME280;10706;49.036;12.112;2023-06-22T05:01:57;97854.72;;;17.01;100.00
21096;BME280;10706;49.036;12.112;2023-06-22T05:04:24;97864.66;;;17.00;100.00
21096;BME280;10706;49.036;12.112;2023-06-22T05:06:54;97858.72;;;17.03;100.00
21096;BME280;10706;49.036;12.112;2023-06-22T05:09:21;97848.47;;;17.00;100.00
21096;BME280;10706;49.036;12.112;2023-06-22T05:11:47;97856.03;;;16.98;100.00
21096;BME280;10706;49.036;12.112;2023-06-22T05:14:13;97853.34;;;17.08;100.00
21096;BME280;10706;49.036;12.112;2023-06-22T05:16:43;97849.53;;;17.09;100.00
21096;BME280;10706;49.036;12.112;2023-06-22T05:19:09;97839.50;;;17.25;100.00
21096;BME280;10706;49.036;12.112;2023-06-22T05:21:35;97841.38;;;17.30;100.00
21096;BME280;10706;49.036;12.112;2023-06-22T05:24:01;97843.84;;;17.21;100.00
21096;BME280;10706;49.036;12.112;2023-06-22T05:26:30;97843.00;;;17.31;100.00
21096;BME280;10706;49.036;12.112;2023-06-22T05:28:56;97840.22;;;17.46;100.00
21096;BME280;10706;49.036;12.112;2023-06-22T05:31:23;97836.38;;;17.58;100.00
21096;BME280;10706;49.036;12.112;2023-06-22T05:33:51;97832.50;;;17.79;100.00
21096;BME280;10706;49.036;12.112;2023-06-22T05:36:18;97837.06;;;17.89;100.00
21096;BME280;10706;49.036;12.112;2023-06-22T05:38:53;97825.38;;;17.99;100.00
21096;BME280;10706;49.036;12.112;2023-06-22T05:41:19;97833.69;;;18.08;100.00
21096;BME280;10706;49.036;12.112;2023-06-22T05:43:45;97833.28;;;18.24;100.00
21096;BME280;10706;49.036;12.112;2023-06-22T05:46:10;97830.94;;;18.47;100.00
21096;BME280;10706;49.036;12.112;2023-06-22T05:48:36;97833.97;;;18.40;100.00
21096;BME280;10706;49.036;12.112;2023-06-22T05:51:02;97838.19;;;18.52;100.00
21096;BME280;10706;49.036;12.112;2023-06-22T05:53:28;97837.75;;;18.69;100.00
21096;BME280;10706;49.036;12.112;2023-06-22T05:55:54;97830.91;;;18.81;98.86
21096;BME280;10706;49.036;12.112;2023-06-22T05:58:19;97832.81;;;18.76;99.85
21096;BME280;10706;49.036;12.112;2023-06-22T06:00:45;97830.53;;;18.88;99.96
21096;BME280;10706;49.036;12.112;2023-06-22T06:03:12;97819.56;;;19.03;99.15
21096;BME280;10706;49.036;12.112;2023-06-22T06:05:37;97809.59;;;19.23;98.41
21096;BME280;10706;49.036;12.112;2023-06-22T06:08:05;97806.28;;;19.50;97.49
21096;BME280;10706;49.036;12.112;2023-06-22T06:10:33;97800.78;;;19.55;97.38
21096;BME280;10706;49.036;12.112;2023-06-22T06:12:59;97800.34;;;19.67;95.49
21096;BME280;10706;49.036;12.112;2023-06-22T06:15:28;97793.56;;;19.89;94.41
21096;BME280;10706;49.036;12.112;2023-06-22T06:17:54;97797.97;;;20.17;93.06
21096;BME280;10706;49.036;12.112;2023-06-22T06:20:23;97802.38;;;20.13;93.73
21096;BME280;10706;49.036;12.112;2023-06-22T06:22:50;97796.69;;;20.29;93.26
21096;BME280;10706;49.036;12.112;2023-06-22T06:25:18;97799.78;;;20.55;91.27
21096;BME280;10706;49.036;12.112;2023-06-22T06:27:50;97799.13;;;20.77;90.01
21096;BME280;10706;49.036;12.112;2023-06-22T06:30:17;97796.94;;;20.79;90.65
21096;BME280;10706;49.036;12.112;2023-06-22T06:32:45;97790.41;;;20.94;89.64
21096;BME280;10706;49.036;12.112;2023-06-22T06:35:14;97794.72;;;21.09;87.88
21096;BME280;10706;49.036;12.112;2023-06-22T06:37:47;97791.69;;;21.24;86.79
21096;BME280;10706;49.036;12.112;2023-06-22T06:40:14;97790.41;;;21.22;89.20
21096;BME280;10706;49.036;12.112;2023-06-22T06:42:44;97786.75;;;21.40;87.21
21096;BME280;10706;49.036;12.112;2023-06-22T06:45:31;97778.91;;;21.52;86.34
21096;BME280;10706;49.036;12.112;2023-06-22T06:47:58;97778.25;;;21.69;85.86
21096;BME280;10706;49.036;12.112;2023-06-22T06:50:24;97771.94;;;21.83;85.48
21096;BME280;10706;49.036;12.112;2023-06-22T06:52:49;97778.59;;;21.90;85.26
21096;BME280;10706;49.036;12.112;2023-06-22T06:55:16;97781.94;;;22.10;85.21
21096;BME280;10706;49.036;12.112;2023-06-22T06:57:43;97782.16;;;22.22;84.04
21096;BME280;10706;49.036;12.112;2023-06-22T07:00:12;97777.25;;;22.56;79.95
21096;BME280;10706;49.036;12.112;2023-06-22T07:02:48;97774.59;;;22.64;80.18
21096;BME280;10706;49.036;12.112;2023-06-22T07:05:14;97769.44;;;22.63;80.08
21096;BME280;10706;49.036;12.112;2023-06-22T07:07:40;97768.66;;;22.71;79.79
21096;BME280;10706;49.036;12.112;2023-06-22T07:10:07;97767.44;;;22.77;79.55
21096;BME280;10706;49.036;12.112;2023-06-22T07:12:33;97763.19;;;23.02;77.55
21096;BME280;10706;49.036;12.112;2023-06-22T07:15:08;97764.47;;;22.96;78.50
21096;BME280;10706;49.036;12.112;2023-06-22T07:17:35;97753.63;;;23.05;79.82
21096;BME280;10706;49.036;12.112;2023-06-22T07:20:02;97749.16;;;23.18;78.56
21096;BME280;10706;49.036;12.112;2023-06-22T07:22:29;97744.88;;;23.43;76.59
21096;BME280;10706;49.036;12.112;2023-06-22T07:24:56;97742.94;;;23.35;79.27
21096;BME280;10706;49.036;12.112;2023-06-22T07:27:21;97753.19;;;23.38;79.87
21096;BME280;10706;49.036;12.112;2023-06-22T07:29:47;97745.50;;;23.40;77.45
21096;BME280;10706;49.036;12.112;2023-06-22T07:32:13;97741.50;;;23.55;76.87
21096;BME280;10706;49.036;12.112;2023-06-22T07:34:39;97747.44;;;23.65;77.84
21096;BME280;10706;49.036;12.112;2023-06-22T07:37:05;97748.09;;;23.62;77.72
21096;BME280;10706;49.036;12.112;2023-06-22T07:39:30;97746.78;;;23.68;76.47
21096;BME280;10706;49.036;12.112;2023-06-22T07:41:56;97754.50;;;23.75;77.59
21096;BME280;10706;49.036;12.112;2023-06-22T07:44:23;97750.69;;;23.94;76.28
21096;BME280;10706;49.036;12.112;2023-06-22T07:46:49;97741.66;;;24.11;75.71
21096;BME280;10706;49.036;12.112;2023-06-22T07:49:15;97745.81;;;24.25;71.05
21096;BME280;10706;49.036;12.112;2023-06-22T07:51:41;97744.66;;;24.35;71.96
21096;BME280;10706;49.036;12.112;2023-06-22T07:54:08;97744.81;;;24.30;65.68
21096;BME280;10706;49.036;12.112;2023-06-22T07:56:35;97731.47;;;24.46;68.04
21096;BME280;10706;49.036;12.112;2023-06-22T07:59:01;97736.38;;;24.70;67.41
21096;BME280;10706;49.036;12.112;2023-06-22T08:01:29;97742.88;;;24.87;64.90
21096;BME280;10706;49.036;12.112;2023-06-22T08:03:55;97738.84;;;24.93;63.54
21096;BME280;10706;49.036;12.112;2023-06-22T08:06:20;97739.94;;;25.00;62.54
21096;BME280;10706;49.036;12.112;2023-06-22T08:08:46;97741.03;;;24.99;60.24
21096;BME280;10706;49.036;12.112;2023-06-22T08:11:14;97736.66;;;25.07;62.81
21096;BME280;10706;49.036;12.112;2023-06-22T08:13:40;97729.69;;;25.18;63.63
21096;BME280;10706;49.036;12.112;2023-06-22T08:16:06;97738.41;;;25.41;59.42
21096;BME280;10706;49.036;12.112;2023-06-22T08:18:33;97733.06;;;25.45;60.27
21096;BME280;10706;49.036;12.112;2023-06-22T08:20:58;97735.78;;;25.45;60.82
21096;BME280;10706;49.036;12.112;2023-06-22T08:23:24;97729.16;;;25.55;60.98
21096;BME280;10706;49.036;12.112;2023-06-22T08:25:50;97727.38;;;25.71;61.47
21096;BME280;10706;49.036;12.112;2023-06-22T08:28:16;97724.31;;;25.94;59.92
21096;BME280;10706;49.036;12.112;2023-06-22T08:30:42;97727.03;;;26.15;61.12
21096;BME280;10706;49.036;12.112;2023-06-22T08:33:07;97724.09;;;26.32;57.86
21096;BME280;10706;49.036;12.112;2023-06-22T08:35:33;97717.25;;;26.38;56.57
21096;BME280;10706;49.036;12.112;2023-06-22T08:37:59;97720.88;;;26.64;56.99
21096;BME280;10706;49.036;12.112;2023-06-22T08:40:25;97714.91;;;26.74;54.40
21096;BME280;10706;49.036;12.112;2023-06-22T08:42:51;97710.69;;;26.64;53.55
21096;BME280;10706;49.036;12.112;2023-06-22T08:45:17;97718.69;;;26.69;54.82
21096;BME280;10706;49.036;12.112;2023-06-22T08:47:43;97711.97;;;26.79;54.94
21096;BME280;10706;49.036;12.112;2023-06-22T08:50:12;97711.03;;;26.75;53.63
21096;BME280;10706;49.036;12.112;2023-06-22T08:52:40;97719.13;;;26.84;54.48
21096;BME280;10706;49.036;12.112;2023-06-22T08:55:09;97720.72;;;26.97;54.46
21096;BME280;10706;49.036;12.112;2023-06-22T08:57:36;97712.28;;;27.14;55.52
21096;BME280;10706;49.036;12.112;2023-06-22T09:00:07;97714.22;;;27.26;53.09
21096;BME280;10706;49.036;12.112;2023-06-22T09:02:45;97718.66;;;27.31;53.22
21096;BME280;10706;49.036;12.112;2023-06-22T09:05:11;97716.94;;;27.14;51.95
21096;BME280;10706;49.036;12.112;2023-06-22T09:07:37;97717.03;;;27.18;53.40
21096;BME280;10706;49.036;12.112;2023-06-22T09:10:03;97707.47;;;27.24;55.09
21096;BME280;10706;49.036;12.112;2023-06-22T09:12:32;97704.59;;;27.32;53.98
21096;BME280;10706;49.036;12.112;2023-06-22T09:14:59;97709.28;;;27.44;53.44
21096;BME280;10706;49.036;12.112;2023-06-22T09:17:26;97705.00;;;27.59;53.01
21096;BME280;10706;49.036;12.112;2023-06-22T09:19:52;97713.72;;;27.77;52.89
21096;BME280;10706;49.036;12.112;2023-06-22T09:22:18;97709.91;;;27.94;51.50
21096;BME280;10706;49.036;12.112;2023-06-22T09:24:44;97709.03;;;28.06;49.80
21096;BME280;10706;49.036;12.112;2023-06-22T09:27:09;97704.47;;;28.10;50.58
21096;BME280;10706;49.036;12.112;2023-06-22T09:29:35;97697.94;;;28.02;51.83
21096;BME280;10706;49.036;12.112;2023-06-22T09:32:01;97699.50;;;28.16;51.88
21096;BME280;10706;49.036;12.112;2023-06-22T09:34:27;97694.72;;;28.28;53.14
21096;BME280;10706;49.036;12.112;2023-06-22T09:36:53;97692.16;;;28.36;51.26
21096;BME280;10706;49.036;12.112;2023-06-22T09:39:18;97692.06;;;28.32;53.06
21096;BME280;10706;49.036;12.112;2023-06-22T09:41:44;97688.53;;;28.31;52.10
21096;BME280;10706;49.036;12.112;2023-06-22T09:44:10;97696.94;;;28.23;51.91
21096;BME280;10706;49.036;12.112;2023-06-22T09:46:36;97692.88;;;28.33;52.00
21096;BME280;10706;49.036;12.112;2023-06-22T09:49:02;97686.06;;;28.42;51.77
21096;BME280;10706;49.036;12.112;2023-06-22T09:51:31;97680.22;;;28.44;50.59
21096;BME280;10706;49.036;12.112;2023-06-22T09:53:57;97673.75;;;28.52;50.34
21096;BME280;10706;49.036;12.112;2023-06-22T09:56:23;97674.25;;;28.74;50.25
21096;BME280;10706;49.036;12.112;2023-06-22T09:58:49;97672.16;;;28.67;51.39
21096;BME280;10706;49.036;12.112;2023-06-22T10:01:18;97664.78;;;28.71;50.44
21096;BME280;10706;49.036;12.112;2023-06-22T10:03:44;97674.19;;;28.70;52.17
21096;BME280;10706;49.036;12.112;2023-06-22T10:06:09;97678.66;;;28.94;49.69
21096;BME280;10706;49.036;12.112;2023-06-22T10:08:36;97677.03;;;29.09;49.65
21096;BME280;10706;49.036;12.112;2023-06-22T10:11:03;97669.75;;;29.17;50.48
21096;BME280;10706;49.036;12.112;2023-06-22T10:13:28;97672.75;;;29.27;50.60
21096;BME280;10706;49.036;12.112;2023-06-22T10:15:54;97670.22;;;29.38;49.50
21096;BME280;10706;49.036;12.112;2023-06-22T10:18:20;97663.97;;;29.22;49.79
21096;BME280;10706;49.036;12.112;2023-06-22T10:20:49;97662.34;;;29.37;50.18
21096;BME280;10706;49.036;12.112;2023-06-22T10:23:21;97658.28;;;29.50;48.90
21096;BME280;10706;49.036;12.112;2023-06-22T10:25:48;97658.34;;;29.54;47.88
21096;BME280;10706;49.036;12.112;2023-06-22T10:28:14;97661.16;;;29.57;47.63
21096;BME280;10706;49.036;12.112;2023-06-22T10:30:43;97653.06;;;29.64;48.62
21096;BME280;10706;49.036;12.112;2023-06-22T10:33:10;97644.94;;;29.72;47.56
21096;BME280;10706;49.036;12.112;2023-06-22T10:35:37;97641.13;;;29.76;47.42
21096;BME280;10706;49.036;12.112;2023-06-22T10:38:05;97645.97;;;29.83;47.08
21096;BME280;10706;49.036;12.112;2023-06-22T10:40:32;97643.47;;;29.97;48.82
21096;BME280;10706;49.036;12.112;2023-06-22T10:42:57;97632.16;;;30.02;46.73
21096;BME280;10706;49.036;12.112;2023-06-22T10:45:23;97631.22;;;30.18;46.20
21096;BME280;10706;49.036;12.112;2023-06-22T10:47:49;97627.09;;;30.28;45.58
21096;BME280;10706;49.036;12.112;2023-06-22T10:50:15;97622.09;;;30.33;44.19
21096;BME280;10706;49.036;12.112;2023-06-22T10:52:41;97617.28;;;30.53;44.22
21096;BME280;10706;49.036;12.112;2023-06-22T10:55:10;97605.94;;;30.58;45.87
21096;BME280;10706;49.036;12.112;2023-06-22T10:57:36;97603.19;;;30.58;44.98
21096;BME280;10706;49.036;12.112;2023-06-22T11:00:03;97604.88;;;30.67;45.40
21096;BME280;10706;49.036;12.112;2023-06-22T11:02:31;97596.94;;;30.61;45.64
21096;BME280;10706;49.036;12.112;2023-06-22T11:05:06;97591.41;;;30.88;45.08
21096;BME280;10706;49.036;12.112;2023-06-22T11:07:32;97600.16;;;30.94;44.26
21096;BME280;10706;49.036;12.112;2023-06-22T11:09:58;97590.91;;;31.09;44.14
21096;BME280;10706;49.036;12.112;2023-06-22T11:12:24;97599.13;;;31.06;42.45
21096;BME280;10706;49.036;12.112;2023-06-22T11:14:49;97587.50;;;31.23;44.22
21096;BME280;10706;49.036;12.112;2023-06-22T11:17:18;97582.31;;;31.14;43.02
21096;BME280;10706;49.036;12.112;2023-06-22T11:19:45;97574.91;;;31.22;40.44
21096;BME280;10706;49.036;12.112;2023-06-22T11:22:10;97576.19;;;31.32;41.80
21096;BME280;10706;49.036;12.112;2023-06-22T11:24:36;97566.19;;;31.50;43.07
21096;BME280;10706;49.036;12.112;2023-06-22T11:27:02;97566.72;;;31.29;41.26
21096;BME280;10706;49.036;12.112;2023-06-22T11:29:28;97561.75;;;31.46;43.31
21096;BME280;10706;49.036;12.112;2023-06-22T11:31:53;97562.16;;;31.85;41.40
21096;BME280;10706;49.036;12.112;2023-06-22T11:34:19;97555.97;;;31.99;41.16
21096;BME280;10706;49.036;12.112;2023-06-22T11:36:45;97555.44;;;32.27;39.19
21096;BME280;10706;49.036;12.112;2023-06-22T11:39:11;97552.94;;;32.11;39.46
21096;BME280;10706;49.036;12.112;2023-06-22T11:41:39;97559.59;;;31.62;39.32
21096;BME280;10706;49.036;12.112;2023-06-22T11:44:05;97558.50;;;31.70;39.99
21096;BME280;10706;49.036;12.112;2023-06-22T11:46:32;97550.19;;;31.67;40.82
21096;BME280;10706;49.036;12.112;2023-06-22T11:48:58;97550.97;;;31.67;39.58
21096;BME280;10706;49.036;12.112;2023-06-22T11:51:24;97552.94;;;32.11;38.71
21096;BME280;10706;49.036;12.112;2023-06-22T11:53:49;97537.72;;;33.05;38.00
21096;BME280;10706;49.036;12.112;2023-06-22T11:56:15;97550.59;;;34.11;36.03
21096;BME280;10706;49.036;12.112;2023-06-22T11:58:41;97536.38;;;34.34;35.90
21096;BME280;10706;49.036;12.112;2023-06-22T12:01:06;97543.53;;;34.20;35.56
21096;BME280;10706;49.036;12.112;2023-06-22T12:03:32;97536.28;;;34.88;36.58
21096;BME280;10706;49.036;12.112;2023-06-22T12:05:59;97538.22;;;34.94;36.74
21096;BME280;10706;49.036;12.112;2023-06-22T12:08:25;97528.03;;;35.47;35.58
21096;BME280;10706;49.036;12.112;2023-06-22T12:10:51;97525.25;;;36.52;34.03
21096;BME280;10706;49.036;12.112;2023-06-22T12:13:17;97532.41;;;36.87;33.31
21096;BME280;10706;49.036;12.112;2023-06-22T12:15:43;97523.69;;;36.85;33.38
21096;BME280;10706;49.036;12.112;2023-06-22T12:18:09;97526.72;;;35.73;34.32
21096;BME280;10706;49.036;12.112;2023-06-22T12:20:34;97508.97;;;35.53;35.57
21096;BME280;10706;49.036;12.112;2023-06-22T12:23:01;97519.56;;;36.25;35.73
21096;BME280;10706;49.036;12.112;2023-06-22T12:25:26;97511.91;;;37.05;33.27
21096;BME280;10706;49.036;12.112;2023-06-22T12:27:52;97507.97;;;37.02;33.86
21096;BME280;10706;49.036;12.112;2023-06-22T12:30:19;97509.84;;;38.18;32.20
21096;BME280;10706;49.036;12.112;2023-06-22T12:32:45;97505.72;;;38.02;32.01
21096;BME280;10706;49.036;12.112;2023-06-22T12:35:10;97495.63;;;38.76;30.36
21096;BME280;10706;49.036;12.112;2023-06-22T12:37:41;97501.63;;;38.74;31.02
21096;BME280;10706;49.036;12.112;2023-06-22T12:40:08;97494.50;;;39.50;29.72
21096;BME280;10706;49.036;12.112;2023-06-22T12:42:34;97488.56;;;39.27;29.67
21096;BME280;10706;49.036;12.112;2023-06-22T12:45:00;97497.31;;;39.30;29.58
21096;BME280;10706;49.036;12.112;2023-06-22T12:47:26;97488.00;;;38.36;31.55
21096;BME280;10706;49.036;12.112;2023-06-22T12:49:51;97478.16;;;38.31;31.18
21096;BME280;10706;49.036;12.112;2023-06-22T12:52:17;97475.81;;;39.63;30.96
21096;BME280;10706;49.036;12.112;2023-06-22T12:54:43;97486.28;;;38.22;30.38